createdAt,value
2022-11-27T00:01:28.190Z,5.50
2022-11-27T00:03:56.823Z,5.50
2022-11-27T00:06:27.276Z,5.50
2022-11-27T00:08:58.146Z,5.50
2022-11-27T00:11:27.823Z,5.50
2022-11-27T00:13:55.763Z,5.50
2022-11-27T00:16:24.313Z,5.50
2022-11-27T00:18:52.681Z,5.50
2022-11-27T00:21:32.076Z,5.50
2022-11-27T00:24:02.527Z,5.50
2022-11-27T00:26:37.289Z,5.50
2022-11-27T00:29:06.893Z,5.50
2022-11-27T00:31:35.597Z,5.50
2022-11-27T00:34:05.657Z,5.50
2022-11-27T00:36:35.194Z,5.50
2022-11-27T00:39:03.772Z,5.50
2022-11-27T00:41:31.548Z,5.50
2022-11-27T00:43:59.411Z,5.50
2022-11-27T00:46:30.267Z,5.50
2022-11-27T00:48:58.973Z,5.50
2022-11-27T00:51:27.012Z,5.50
2022-11-27T00:53:55.134Z,5.50
2022-11-27T00:56:31.109Z,5.50
2022-11-27T00:58:59.819Z,5.50
2022-11-27T01:01:32.863Z,5.50
2022-11-27T01:04:01.812Z,5.50
2022-11-27T01:06:30.353Z,5.50
2022-11-27T01:08:58.823Z,5.50
2022-11-27T01:11:28.763Z,5.50
2022-11-27T01:13:58.746Z,5.50
2022-11-27T01:16:28.620Z,5.50
2022-11-27T01:18:58.816Z,5.60
2022-11-27T01:21:28.943Z,5.50
2022-11-27T01:23:56.901Z,5.50
2022-11-27T01:26:24.909Z,5.50
2022-11-27T01:28:56.740Z,5.50
2022-11-27T01:31:30.536Z,5.50
2022-11-27T01:34:01.452Z,5.50
2022-11-27T01:36:30.480Z,5.50
2022-11-27T01:38:59.420Z,5.50
2022-11-27T01:41:32.992Z,5.50
2022-11-27T01:44:03.888Z,5.50
2022-11-27T01:46:44.357Z,5.50
2022-11-27T01:49:12.321Z,5.50
2022-11-27T01:51:58.629Z,5.50
2022-11-27T01:54:46.841Z,5.50
2022-11-27T01:57:19.240Z,5.50
2022-11-27T01:59:49.224Z,5.50
2022-11-27T02:02:17.124Z,5.50
2022-11-27T02:04:45.208Z,5.50
2022-11-27T02:07:12.726Z,5.50
2022-11-27T02:09:41.370Z,5.50
2022-11-27T02:12:27.942Z,5.50
2022-11-27T02:15:29.881Z,5.50
2022-11-27T02:18:14.752Z,5.50
2022-11-27T02:21:03.182Z,5.60
2022-11-27T02:23:42.574Z,5.60
2022-11-27T02:26:24.400Z,5.60
2022-11-27T02:29:03.017Z,5.60
2022-11-27T02:31:35.263Z,5.60
2022-11-27T02:34:31.440Z,5.60
2022-11-27T02:37:22.388Z,5.60
2022-11-27T02:40:10.817Z,5.60
2022-11-27T02:42:54.201Z,5.60
2022-11-27T02:45:46.533Z,5.60
2022-11-27T02:48:17.244Z,5.60
2022-11-27T02:50:46.762Z,5.60
2022-11-27T02:53:46.601Z,5.60
2022-11-27T02:56:19.384Z,5.50
2022-11-27T02:58:48.586Z,5.50
2022-11-27T03:01:18.503Z,5.50
2022-11-27T03:03:51.297Z,5.50
2022-11-27T03:06:25.094Z,5.50
2022-11-27T03:09:13.687Z,5.50
2022-11-27T03:11:41.442Z,5.50
2022-11-27T03:14:12.446Z,5.50
2022-11-27T03:17:17.151Z,5.50
2022-11-27T03:20:13.860Z,5.50
2022-11-27T03:22:43.020Z,5.50
2022-11-27T03:25:11.264Z,5.50
2022-11-27T03:28:00.220Z,5.50
2022-11-27T03:30:28.204Z,5.50
2022-11-27T03:32:56.202Z,5.50
2022-11-27T03:35:26.020Z,5.50
2022-11-27T03:37:54.344Z,5.50
2022-11-27T03:40:33.465Z,5.50
2022-11-27T03:43:19.102Z,5.50
2022-11-27T03:46:10.068Z,5.50
2022-11-27T03:48:37.539Z,5.50
2022-11-27T03:51:17.981Z,5.50
2022-11-27T03:53:59.424Z,5.50
2022-11-27T03:56:36.343Z,5.50
2022-11-27T03:59:23.013Z,5.50
2022-11-27T04:01:50.966Z,5.50
2022-11-27T04:04:18.652Z,5.50
2022-11-27T04:06:46.682Z,5.60
2022-11-27T04:09:14.063Z,5.60
2022-11-27T04:11:41.886Z,5.50
2022-11-27T04:14:09.179Z,5.60
2022-11-27T04:16:37.223Z,5.50
2022-11-27T04:19:04.635Z,5.50
2022-11-27T04:21:32.202Z,5.50
2022-11-27T04:23:59.480Z,5.50
2022-11-27T04:26:27.533Z,5.50
2022-11-27T04:28:54.794Z,5.50
2022-11-27T04:31:22.688Z,5.50
2022-11-27T04:33:50.315Z,5.50
2022-11-27T04:36:17.890Z,5.50
2022-11-27T04:38:45.257Z,5.50
2022-11-27T04:41:13.062Z,5.50
2022-11-27T04:43:40.566Z,5.50
2022-11-27T04:46:08.432Z,5.50
2022-11-27T04:48:35.780Z,5.50
2022-11-27T04:51:03.597Z,5.50
2022-11-27T04:53:30.968Z,5.50
2022-11-27T04:55:58.848Z,5.50
2022-11-27T04:58:26.421Z,5.40
2022-11-27T05:00:54.060Z,5.40
2022-11-27T05:03:21.658Z,5.40
2022-11-27T05:05:57.410Z,5.40
2022-11-27T05:08:25.960Z,5.40
2022-11-27T05:11:08.046Z,5.40
2022-11-27T05:13:35.842Z,5.50
2022-11-27T05:16:04.705Z,5.50
2022-11-27T05:18:32.511Z,5.50
2022-11-27T05:21:02.682Z,5.50
2022-11-27T05:23:30.360Z,5.40
2022-11-27T05:25:58.006Z,5.40
2022-11-27T05:28:27.149Z,5.40
2022-11-27T05:30:55.134Z,5.40
2022-11-27T05:33:22.713Z,5.40
2022-11-27T05:35:50.522Z,5.40
2022-11-27T05:38:18.030Z,5.40
2022-11-27T05:40:45.641Z,5.40
2022-11-27T05:43:12.959Z,5.50
2022-11-27T05:45:40.942Z,5.50
2022-11-27T05:48:08.221Z,5.50
2022-11-27T05:50:36.685Z,5.50
2022-11-27T05:53:05.338Z,5.40
2022-11-27T05:55:32.806Z,5.40
2022-11-27T05:58:00.466Z,5.40
2022-11-27T06:00:28.397Z,5.40
2022-11-27T06:02:56.685Z,5.30
2022-11-27T06:05:24.704Z,5.30
2022-11-27T06:07:52.256Z,5.30
2022-11-27T06:10:20.285Z,5.30
2022-11-27T06:12:47.588Z,5.30
2022-11-27T06:15:15.584Z,5.40
2022-11-27T06:17:43.054Z,5.30
2022-11-27T06:20:11.668Z,5.30
2022-11-27T06:22:39.216Z,5.30
2022-11-27T06:25:07.183Z,5.40
2022-11-27T06:27:36.224Z,5.40
2022-11-27T06:30:05.320Z,5.40
2022-11-27T06:32:32.688Z,5.50
2022-11-27T06:35:00.603Z,5.50
2022-11-27T06:37:27.986Z,5.50
2022-11-27T06:39:55.808Z,5.50
2022-11-27T06:42:23.158Z,5.50
2022-11-27T06:44:50.861Z,5.50
2022-11-27T06:47:18.234Z,5.50
2022-11-27T06:49:46.020Z,5.50
2022-11-27T06:52:13.889Z,5.50
2022-11-27T06:54:41.852Z,5.50
2022-11-27T06:57:09.421Z,5.60
2022-11-27T06:59:37.221Z,5.60
2022-11-27T07:02:04.632Z,5.60
2022-11-27T07:04:33.939Z,5.60
2022-11-27T07:07:01.438Z,5.60
2022-11-27T07:09:29.486Z,5.50
2022-11-27T07:11:56.744Z,5.60
2022-11-27T07:14:24.768Z,5.60
2022-11-27T07:16:52.337Z,5.60
2022-11-27T07:19:20.459Z,5.60
2022-11-27T07:21:48.036Z,5.60
2022-11-27T07:24:16.000Z,5.60
2022-11-27T07:26:43.361Z,5.70
2022-11-27T07:29:12.018Z,5.70
2022-11-27T07:31:39.582Z,5.70
2022-11-27T07:34:14.087Z,5.70
2022-11-27T07:36:43.548Z,5.70
2022-11-27T07:39:11.416Z,5.70
2022-11-27T07:41:38.829Z,5.70
2022-11-27T07:44:06.584Z,5.80
2022-11-27T07:46:34.045Z,5.70
2022-11-27T07:49:02.046Z,5.70
2022-11-27T07:51:29.610Z,5.80
2022-11-27T07:53:57.681Z,5.80
2022-11-27T07:56:25.446Z,5.80
2022-11-27T07:58:53.338Z,5.80
2022-11-27T08:01:22.001Z,5.80
2022-11-27T08:03:50.338Z,5.90
2022-11-27T08:06:20.675Z,5.90
2022-11-27T08:08:49.013Z,6.00
2022-11-27T08:11:30.041Z,6.00
2022-11-27T08:14:00.612Z,6.00
2022-11-27T08:16:28.680Z,6.10
2022-11-27T08:18:57.593Z,6.10
2022-11-27T08:21:25.698Z,6.10
2022-11-27T08:23:53.934Z,6.10
2022-11-27T08:26:21.493Z,6.20
2022-11-27T08:28:52.680Z,6.20
2022-11-27T08:31:22.718Z,6.20
2022-11-27T08:33:51.239Z,6.30
2022-11-27T08:36:18.698Z,6.30
2022-11-27T08:38:47.064Z,6.30
2022-11-27T08:41:14.822Z,6.40
2022-11-27T08:43:42.427Z,6.40
2022-11-27T08:46:10.570Z,6.40
2022-11-27T08:48:38.540Z,6.40
2022-11-27T08:51:12.495Z,6.40
2022-11-27T08:53:41.129Z,6.50
2022-11-27T08:56:23.602Z,6.40
2022-11-27T08:58:52.010Z,6.50
2022-11-27T09:01:22.288Z,6.50
2022-11-27T09:03:50.416Z,6.40
2022-11-27T09:06:21.764Z,6.50
2022-11-27T09:08:50.284Z,6.50
2022-11-27T09:11:20.017Z,6.40
2022-11-27T09:13:48.380Z,6.50
2022-11-27T09:16:18.912Z,6.50
2022-11-27T09:18:48.704Z,6.40
2022-11-27T09:21:18.428Z,6.40
2022-11-27T09:23:46.542Z,6.40
2022-11-27T09:26:17.515Z,6.40
2022-11-27T09:28:45.886Z,6.40
2022-11-27T09:31:15.735Z,6.50
2022-11-27T09:33:44.354Z,6.50
2022-11-27T09:36:15.533Z,6.50
2022-11-27T09:38:44.531Z,6.50
2022-11-27T09:41:12.134Z,6.50
2022-11-27T09:43:53.615Z,6.50
2022-11-27T09:46:29.741Z,6.50
2022-11-27T09:49:00.801Z,6.50
2022-11-27T09:51:45.476Z,6.50
2022-11-27T09:54:21.600Z,6.50
2022-11-27T09:56:52.078Z,6.40
2022-11-27T09:59:24.209Z,6.40
2022-11-27T10:01:51.904Z,6.50
2022-11-27T10:04:21.753Z,6.50
2022-11-27T10:07:28.279Z,6.60
2022-11-27T10:10:03.226Z,6.70
2022-11-27T10:12:53.452Z,6.80
2022-11-27T10:15:38.778Z,6.90
2022-11-27T10:18:20.646Z,7.00
2022-11-27T10:21:01.203Z,7.00
2022-11-27T10:23:51.226Z,7.00
2022-11-27T10:26:25.274Z,7.00
2022-11-27T10:29:07.784Z,7.10
2022-11-27T10:31:50.217Z,7.00
2022-11-27T10:34:31.954Z,7.00
2022-11-27T10:37:02.572Z,7.00
2022-11-27T10:39:43.376Z,7.10
2022-11-27T10:42:37.139Z,7.10
2022-11-27T10:45:23.165Z,7.10
2022-11-27T10:47:51.280Z,7.10
2022-11-27T10:50:20.302Z,7.20
2022-11-27T10:53:06.384Z,7.20
2022-11-27T10:56:17.472Z,7.20
2022-11-27T10:59:00.897Z,7.20
2022-11-27T11:01:40.647Z,7.20
2022-11-27T11:04:31.689Z,7.20
2022-11-27T11:06:58.870Z,7.20
2022-11-27T11:09:33.019Z,7.10
2022-11-27T11:12:19.123Z,7.10
2022-11-27T11:14:59.025Z,7.10
2022-11-27T11:17:31.171Z,7.10
2022-11-27T11:19:58.948Z,7.10
2022-11-27T11:22:29.774Z,7.00
2022-11-27T11:24:58.443Z,7.00
2022-11-27T11:27:30.730Z,7.00
2022-11-27T11:30:07.919Z,7.00
2022-11-27T11:32:40.737Z,7.10
2022-11-27T11:35:24.749Z,7.00
2022-11-27T11:37:52.924Z,7.00
2022-11-27T11:40:22.464Z,7.10
2022-11-27T11:42:55.943Z,7.10
2022-11-27T11:45:26.474Z,7.10
2022-11-27T11:47:58.889Z,7.10
2022-11-27T11:50:49.432Z,7.10
2022-11-27T11:53:36.360Z,7.00
2022-11-27T11:56:31.955Z,7.00
2022-11-27T11:59:07.337Z,7.00
2022-11-27T12:01:58.454Z,7.10
2022-11-27T12:04:43.371Z,7.20
2022-11-27T12:07:39.229Z,7.10
2022-11-27T12:10:24.735Z,7.10
2022-11-27T12:13:08.553Z,7.00
2022-11-27T12:15:46.976Z,7.00
2022-11-27T12:18:23.690Z,7.10
2022-11-27T12:21:15.438Z,7.20
2022-11-27T12:24:00.000Z,7.20
2022-11-27T12:26:41.412Z,7.20
2022-11-27T12:29:38.359Z,7.20
2022-11-27T12:32:22.611Z,7.20
2022-11-27T12:34:53.658Z,7.20
2022-11-27T12:37:35.403Z,7.20
2022-11-27T12:40:17.236Z,7.40
2022-11-27T12:43:04.805Z,7.40
2022-11-27T12:45:42.455Z,7.20
2022-11-27T12:48:18.177Z,7.20
2022-11-27T12:51:01.671Z,7.40
2022-11-27T12:53:38.029Z,7.40
2022-11-27T12:56:40.708Z,7.40
2022-11-27T12:59:29.931Z,7.40
2022-11-27T13:02:11.694Z,7.40
2022-11-27T13:04:45.368Z,7.40
2022-11-27T13:07:25.138Z,7.20
2022-11-27T13:10:06.004Z,7.20
2022-11-27T13:12:39.963Z,7.10
2022-11-27T13:15:23.000Z,7.00
2022-11-27T13:18:07.503Z,7.00
2022-11-27T13:20:38.829Z,6.90
2022-11-27T13:23:06.536Z,6.80
2022-11-27T13:25:42.143Z,6.80
2022-11-27T13:28:22.485Z,6.80
2022-11-27T13:30:52.771Z,6.80
2022-11-27T13:33:47.189Z,6.70
2022-11-27T13:36:33.350Z,6.70
2022-11-27T13:39:04.106Z,6.70
2022-11-27T13:41:41.238Z,6.70
2022-11-27T13:44:24.964Z,6.70
2022-11-27T13:46:55.702Z,6.60
2022-11-27T13:49:38.220Z,6.60
2022-11-27T13:52:11.707Z,6.60
2022-11-27T13:54:39.651Z,6.60
2022-11-27T13:57:18.775Z,6.60
2022-11-27T14:00:08.174Z,6.60
2022-11-27T14:02:43.020Z,6.60
2022-11-27T14:05:16.666Z,6.60
2022-11-27T14:07:52.273Z,6.60
2022-11-27T14:10:24.645Z,6.60
2022-11-27T14:12:57.211Z,6.60
2022-11-27T14:15:27.220Z,6.60
2022-11-27T14:18:15.552Z,6.60
2022-11-27T14:20:55.599Z,6.50
2022-11-27T14:23:32.269Z,6.50
2022-11-27T14:26:19.034Z,6.50
2022-11-27T14:28:54.331Z,6.50
2022-11-27T14:31:31.254Z,6.50
2022-11-27T14:34:15.583Z,6.50
2022-11-27T14:36:46.611Z,6.50
2022-11-27T14:39:28.007Z,6.40
2022-11-27T14:42:05.345Z,6.40
2022-11-27T14:44:33.804Z,6.40
2022-11-27T14:47:03.771Z,6.30
2022-11-27T14:49:32.727Z,6.30
2022-11-27T14:52:08.912Z,6.30
2022-11-27T14:54:39.494Z,6.20
2022-11-27T14:57:11.377Z,6.20
2022-11-27T14:59:40.639Z,6.10
2022-11-27T15:02:18.954Z,6.10
2022-11-27T15:04:46.987Z,6.10
2022-11-27T15:07:25.319Z,6.00
2022-11-27T15:09:56.332Z,6.00
2022-11-27T15:12:35.367Z,5.90
2022-11-27T15:15:05.703Z,5.90
2022-11-27T15:17:37.275Z,5.90
2022-11-27T15:20:12.043Z,5.90
2022-11-27T15:22:40.105Z,5.90
2022-11-27T15:25:27.906Z,5.90
2022-11-27T15:27:55.760Z,5.80
2022-11-27T15:30:23.737Z,5.80
2022-11-27T15:32:53.137Z,5.80
2022-11-27T15:35:29.515Z,5.80
2022-11-27T15:37:58.440Z,5.80
2022-11-27T15:40:37.652Z,5.80
2022-11-27T15:43:16.365Z,5.90
2022-11-27T15:45:44.789Z,5.80
2022-11-27T15:48:16.258Z,5.80
2022-11-27T15:50:48.343Z,5.80
2022-11-27T15:53:19.451Z,5.80
2022-11-27T15:55:47.841Z,5.80
2022-11-27T15:58:16.300Z,5.80
2022-11-27T16:00:43.688Z,5.70
2022-11-27T16:03:11.450Z,5.70
2022-11-27T16:05:39.031Z,5.60
2022-11-27T16:08:07.950Z,5.50
2022-11-27T16:10:35.648Z,5.50
2022-11-27T16:13:03.758Z,5.40
2022-11-27T16:15:33.140Z,5.40
2022-11-27T16:18:01.353Z,5.40
2022-11-27T16:20:29.057Z,5.30
2022-11-27T16:22:56.959Z,5.30
2022-11-27T16:25:25.683Z,5.30
2022-11-27T16:27:57.972Z,5.20
2022-11-27T16:30:28.658Z,5.20
2022-11-27T16:32:56.815Z,5.10
2022-11-27T16:35:27.449Z,5.10
2022-11-27T16:37:55.182Z,5.10
2022-11-27T16:40:23.518Z,5.10
2022-11-27T16:42:51.500Z,5.10
2022-11-27T16:45:19.312Z,5.00
2022-11-27T16:47:47.115Z,5.00
2022-11-27T16:50:14.877Z,5.00
2022-11-27T16:52:51.385Z,5.00
2022-11-27T16:55:24.661Z,5.00
2022-11-27T16:57:52.455Z,5.00
2022-11-27T17:00:20.347Z,5.00
2022-11-27T17:02:48.381Z,4.90
2022-11-27T17:05:16.075Z,5.00
2022-11-27T17:07:44.574Z,5.00
2022-11-27T17:10:12.086Z,4.90
2022-11-27T17:12:40.272Z,4.70
2022-11-27T17:15:09.127Z,4.80
2022-11-27T17:17:40.394Z,4.80
2022-11-27T17:20:09.337Z,4.80
2022-11-27T17:22:37.955Z,4.70
2022-11-27T17:25:05.914Z,4.70
2022-11-27T17:27:34.538Z,4.70
2022-11-27T17:30:05.086Z,4.70
2022-11-27T17:32:34.296Z,4.50
2022-11-27T17:35:02.751Z,4.50
2022-11-27T17:37:30.654Z,4.50
2022-11-27T17:39:58.307Z,4.40
2022-11-27T17:42:26.536Z,4.40
2022-11-27T17:44:53.914Z,4.30
2022-11-27T17:47:22.292Z,4.20
2022-11-27T17:49:49.795Z,4.10
2022-11-27T17:52:17.458Z,4.10
2022-11-27T17:54:45.318Z,4.10
2022-11-27T17:57:13.639Z,4.20
2022-11-27T17:59:41.583Z,4.20
2022-11-27T18:02:12.017Z,4.10
2022-11-27T18:04:40.649Z,4.10
2022-11-27T18:07:09.149Z,4.10
2022-11-27T18:09:36.676Z,4.00
2022-11-27T18:12:06.968Z,4.00
2022-11-27T18:14:35.905Z,4.00
2022-11-27T18:17:05.413Z,4.00
2022-11-27T18:19:33.328Z,3.90
2022-11-27T18:22:01.109Z,4.00
2022-11-27T18:24:28.871Z,3.90
2022-11-27T18:27:12.083Z,3.90
2022-11-27T18:29:43.005Z,3.90
2022-11-27T18:32:12.528Z,3.90
2022-11-27T18:34:40.744Z,3.90
2022-11-27T18:37:09.243Z,3.80
2022-11-27T18:39:37.316Z,3.70
2022-11-27T18:42:06.230Z,3.70
2022-11-27T18:44:37.335Z,3.70
2022-11-27T18:47:11.373Z,3.70
2022-11-27T18:49:40.307Z,3.60
2022-11-27T18:52:09.261Z,3.60
2022-11-27T18:54:37.454Z,3.60
2022-11-27T18:57:07.333Z,3.60
2022-11-27T18:59:35.762Z,3.60
2022-11-27T19:02:05.203Z,3.60
2022-11-27T19:04:36.617Z,3.50
2022-11-27T19:07:05.858Z,3.50
2022-11-27T19:09:33.354Z,3.50
2022-11-27T19:12:01.695Z,3.50
2022-11-27T19:14:29.776Z,3.50
2022-11-27T19:16:58.851Z,3.40
2022-11-27T19:22:20.010Z,3.30
2022-11-27T19:24:47.992Z,3.30
2022-11-27T19:27:16.121Z,3.30
2022-11-27T19:29:43.780Z,3.30
2022-11-27T19:32:11.947Z,3.30
2022-11-27T19:34:40.613Z,3.20
2022-11-27T19:37:09.751Z,3.10
2022-11-27T19:39:37.256Z,3.10
2022-11-27T19:42:08.317Z,3.10
2022-11-27T19:44:36.148Z,3.10
2022-11-27T19:47:04.160Z,3.10
2022-11-27T19:49:31.841Z,3.10
2022-11-27T19:52:00.452Z,3.10
2022-11-27T19:54:29.317Z,3.10
2022-11-27T19:56:57.855Z,3.00
2022-11-27T19:59:26.476Z,2.90
2022-11-27T20:01:56.218Z,2.90
2022-11-27T20:04:28.975Z,2.90
2022-11-27T20:06:56.900Z,2.80
2022-11-27T20:09:24.801Z,2.70
2022-11-27T20:11:52.865Z,2.60
2022-11-27T20:14:23.545Z,2.50
2022-11-27T20:16:51.647Z,2.10
2022-11-27T20:19:19.381Z,1.90
2022-11-27T20:21:47.191Z,1.80
2022-11-27T20:24:15.373Z,1.60
2022-11-27T20:26:54.676Z,1.50
2022-11-27T20:29:27.145Z,1.40
2022-11-27T20:32:00.524Z,1.50
2022-11-27T20:34:36.519Z,1.60
2022-11-27T20:37:20.283Z,1.60
2022-11-27T20:39:52.639Z,1.60
2022-11-27T20:42:27.523Z,1.60
2022-11-27T20:45:05.396Z,1.70
2022-11-27T20:47:43.108Z,1.70
2022-11-27T20:50:18.103Z,1.70
2022-11-27T20:52:49.804Z,1.70
2022-11-27T20:55:18.954Z,1.70
2022-11-27T20:57:50.758Z,1.60
2022-11-27T21:00:20.440Z,1.50
2022-11-27T21:02:48.323Z,1.40
2022-11-27T21:05:15.974Z,1.40
2022-11-27T21:07:43.958Z,1.40
2022-11-27T21:10:14.955Z,1.40
2022-11-27T21:12:45.286Z,1.20
2022-11-27T21:15:13.250Z,1.20
2022-11-27T21:17:41.438Z,1.10
2022-11-27T21:20:09.577Z,1.10
2022-11-27T21:22:37.351Z,1.10
2022-11-27T21:25:05.197Z,1.00
2022-11-27T21:27:34.190Z,1.00
2022-11-27T21:30:01.590Z,1.00
2022-11-27T21:32:29.560Z,0.90
2022-11-27T21:34:58.218Z,0.80
2022-11-27T21:37:26.125Z,0.80
2022-11-27T21:39:53.589Z,0.80
2022-11-27T21:42:21.629Z,0.80
2022-11-27T21:44:49.136Z,0.70
2022-11-27T21:47:16.748Z,0.70
2022-11-27T21:49:44.602Z,0.60
2022-11-27T21:52:13.602Z,0.60
2022-11-27T21:54:42.501Z,0.60
2022-11-27T21:57:10.670Z,0.50
2022-11-27T21:59:39.659Z,0.50
2022-11-27T22:02:11.704Z,0.40
2022-11-27T22:04:39.633Z,0.40
2022-11-27T22:07:07.891Z,0.30
2022-11-27T22:09:36.097Z,0.30
2022-11-27T22:12:04.471Z,0.20
2022-11-27T22:14:32.990Z,0.20
2022-11-27T22:17:00.829Z,0.10
2022-11-27T22:19:28.886Z,0.00
2022-11-27T22:21:57.183Z,0.00
2022-11-27T22:24:29.393Z,0.00
2022-11-27T22:26:57.296Z,0.00
2022-11-27T22:29:24.855Z,0.00
2022-11-27T22:31:53.685Z,0.00
2022-11-27T22:34:21.169Z,0.00
2022-11-27T22:36:48.858Z,0.00
2022-11-27T22:39:16.131Z,0.10
2022-11-27T22:41:45.033Z,0.20
2022-11-27T22:44:16.957Z,0.20
2022-11-27T22:46:45.493Z,0.30
2022-11-27T22:49:16.009Z,0.30
2022-11-27T22:51:45.085Z,0.20
2022-11-27T22:54:15.627Z,0.20
2022-11-27T22:56:45.917Z,0.20
2022-11-27T23:05:21.166Z,0.30
2022-11-27T23:07:50.023Z,0.30
2022-11-27T23:10:18.039Z,0.40
2022-11-27T23:12:45.550Z,0.40
2022-11-27T23:15:13.142Z,0.40
2022-11-27T23:17:40.794Z,0.30
2022-11-27T23:20:09.551Z,0.30
2022-11-27T23:22:37.173Z,0.30
2022-11-27T23:25:04.864Z,0.10
2022-11-27T23:27:32.499Z,0.00
2022-11-27T23:30:00.029Z,0.00
2022-11-27T23:32:28.001Z,-0.10
2022-11-27T23:34:55.462Z,-0.10
2022-11-27T23:37:23.171Z,-0.20
2022-11-27T23:39:50.443Z,-0.20
2022-11-27T23:42:17.898Z,-0.20
2022-11-27T23:44:45.465Z,-0.20
2022-11-27T23:47:12.992Z,-0.20
2022-11-27T23:49:40.542Z,-0.20
2022-11-27T23:52:11.831Z,-0.20
2022-11-27T23:54:42.285Z,-0.20
2022-11-27T23:57:10.205Z,-0.20
2022-11-27T23:59:37.864Z,-0.20
